createdAt,value
2023-07-25T00:03:00.852Z,100613.00
2023-07-25T00:08:22.858Z,100617.72
2023-07-25T00:13:47.853Z,100621.63
2023-07-25T00:19:09.791Z,100616.91
2023-07-25T00:24:31.656Z,100620.53
2023-07-25T00:29:54.140Z,100623.59
2023-07-25T00:35:16.075Z,100627.47
2023-07-25T00:40:41.099Z,100630.25
2023-07-25T00:46:03.195Z,100630.25
2023-07-25T00:51:25.090Z,100640.59
2023-07-25T00:56:47.022Z,100634.16
2023-07-25T01:02:10.174Z,100626.91
2023-07-25T01:07:33.046Z,100633.59
2023-07-25T01:12:55.085Z,100618.84
2023-07-25T01:18:17.461Z,100606.84
2023-07-25T01:23:40.110Z,100611.59
2023-07-25T01:29:01.977Z,100606.31
2023-07-25T01:34:24.078Z,100598.78
2023-07-25T01:39:45.967Z,100601.88
2023-07-25T01:45:08.715Z,100593.50
2023-07-25T01:50:32.455Z,100589.06
2023-07-25T01:55:54.775Z,100592.09
2023-07-25T02:01:16.749Z,100592.09
2023-07-25T02:06:38.776Z,100585.69
2023-07-25T02:12:02.265Z,100592.09
2023-07-25T02:17:24.134Z,100580.13
2023-07-25T02:22:45.997Z,100579.56
2023-07-25T02:28:07.840Z,100581.53
2023-07-25T02:33:29.799Z,100589.88
2023-07-25T02:38:51.965Z,100586.25
2023-07-25T02:44:13.842Z,100574.28
2023-07-25T02:49:35.682Z,100575.41
2023-07-25T02:54:57.554Z,100577.31
2023-07-25T03:00:19.848Z,100575.66
2023-07-25T03:05:41.821Z,100580.41
2023-07-25T03:11:03.758Z,100584.28
2023-07-25T03:16:25.766Z,100573.16
2023-07-25T03:21:47.835Z,100577.06
2023-07-25T03:27:09.789Z,100583.72
2023-07-25T03:32:31.758Z,100583.72
2023-07-25T03:37:53.680Z,100585.69
2023-07-25T03:43:15.533Z,100584.00
2023-07-25T03:48:37.667Z,100583.16
2023-07-25T03:53:59.600Z,100572.31
2023-07-25T03:59:22.092Z,100563.97
2023-07-25T04:04:44.121Z,100585.13
2023-07-25T04:10:06.679Z,100578.16
2023-07-25T04:15:28.592Z,100578.44
2023-07-25T04:20:50.512Z,100593.19
2023-07-25T04:26:12.420Z,100581.22
2023-07-25T04:31:34.712Z,100574.81
2023-07-25T04:36:56.955Z,100573.16
2023-07-25T04:42:18.857Z,100578.72
2023-07-25T04:47:40.884Z,100572.28
2023-07-25T04:53:02.769Z,100579.81
2023-07-25T04:58:24.595Z,100589.00
2023-07-25T05:03:46.482Z,100591.25
2023-07-25T05:09:08.575Z,100583.72
2023-07-25T05:14:30.438Z,100593.16
2023-07-25T05:19:52.330Z,100596.81
2023-07-25T05:25:14.172Z,100603.19
2023-07-25T05:30:36.022Z,100602.38
2023-07-25T05:36:05.076Z,100600.13
2023-07-25T05:41:27.049Z,100605.97
2023-07-25T05:46:48.940Z,100609.63
2023-07-25T05:52:10.900Z,100609.63
2023-07-25T05:57:32.787Z,100608.47
2023-07-25T06:02:54.673Z,100609.91
2023-07-25T06:08:16.527Z,100622.41
2023-07-25T06:13:41.524Z,100624.09
2023-07-25T06:19:03.584Z,100615.75
2023-07-25T06:24:25.591Z,100615.75
2023-07-25T06:29:48.088Z,100611.84
2023-07-25T06:35:10.239Z,100613.53
2023-07-25T06:40:32.272Z,100615.78
2023-07-25T06:45:54.725Z,100614.09
2023-07-25T06:51:16.640Z,100616.03
2023-07-25T06:56:38.562Z,100622.47
2023-07-25T07:02:00.450Z,100624.69
2023-07-25T07:07:22.446Z,100642.50
2023-07-25T07:12:49.351Z,100639.16
2023-07-25T07:18:11.700Z,100649.47
2023-07-25T07:23:34.539Z,100646.38
2023-07-25T07:28:56.372Z,100647.25
2023-07-25T07:34:19.257Z,100653.66
2023-07-25T07:39:42.738Z,100649.75
2023-07-25T07:45:04.961Z,100650.88
2023-07-25T07:50:29.987Z,100653.41
2023-07-25T07:55:51.868Z,100659.78
2023-07-25T08:01:23.232Z,100667.56
2023-07-25T08:06:45.247Z,100680.13
2023-07-25T08:12:07.846Z,100680.94
2023-07-25T08:17:29.878Z,100689.56
2023-07-25T08:22:51.851Z,100695.13
2023-07-25T08:28:13.892Z,100687.06
2023-07-25T08:33:38.397Z,100691.53
2023-07-25T08:39:00.289Z,100699.88
2023-07-25T08:44:22.837Z,100708.78
2023-07-25T08:49:47.984Z,100705.75
2023-07-25T08:55:10.135Z,100713.81
2023-07-25T09:00:32.437Z,100713.81
2023-07-25T09:05:54.832Z,100723.28
2023-07-25T09:11:20.924Z,100717.69
2023-07-25T09:16:43.016Z,100713.81
2023-07-25T09:22:05.303Z,100724.66
2023-07-25T09:27:27.941Z,100715.50
2023-07-25T09:32:51.826Z,100708.25
2023-07-25T09:38:13.805Z,100721.66
2023-07-25T09:43:35.750Z,100724.47
2023-07-25T09:48:57.742Z,100734.19
2023-07-25T09:54:19.656Z,100736.72
2023-07-25T09:59:41.797Z,100727.28
2023-07-25T10:05:03.943Z,100724.19
2023-07-25T10:10:27.119Z,100732.28
2023-07-25T10:15:50.829Z,100731.16
2023-07-25T10:21:13.372Z,100731.72
2023-07-25T10:26:35.317Z,100735.63
2023-07-25T10:31:57.571Z,100731.16
2023-07-25T10:37:29.762Z,100729.47
2023-07-25T10:48:45.029Z,100742.03
2023-07-25T10:54:10.505Z,100729.19
2023-07-25T10:59:32.346Z,100728.34
2023-07-25T11:05:14.153Z,100725.81
2023-07-25T11:10:36.484Z,100740.03
2023-07-25T11:15:58.632Z,100738.06
2023-07-25T11:21:20.555Z,100729.47
2023-07-25T11:26:44.711Z,100732.81
2023-07-25T11:32:07.186Z,100734.78
2023-07-25T11:37:29.134Z,100733.38
2023-07-25T11:42:51.682Z,100730.88
2023-07-25T11:48:16.495Z,100731.97
2023-07-25T11:53:38.738Z,100737.56
2023-07-25T11:59:01.277Z,100731.97
2023-07-25T12:04:23.243Z,100731.72
2023-07-25T12:09:54.903Z,100726.44
2023-07-25T12:15:17.383Z,100751.78
2023-07-25T12:20:48.755Z,100747.34
2023-07-25T12:26:22.125Z,100758.47
2023-07-25T12:31:44.728Z,100749.84
2023-07-25T12:37:07.562Z,100756.81
2023-07-25T12:42:29.406Z,100765.41
2023-07-25T12:47:51.252Z,100775.47
2023-07-25T12:53:13.227Z,100777.94
2023-07-25T12:58:35.057Z,100776.25
2023-07-25T13:03:57.076Z,100772.63
2023-07-25T13:09:19.205Z,100776.25
2023-07-25T13:14:41.285Z,100776.81
2023-07-25T13:20:06.116Z,100767.34
2023-07-25T13:25:28.562Z,100770.44
2023-07-25T13:30:50.403Z,100780.19
2023-07-25T13:36:12.354Z,100779.59
2023-07-25T13:41:34.617Z,100780.72
2023-07-25T13:46:56.866Z,100780.16
2023-07-25T13:52:18.920Z,100783.22
2023-07-25T13:57:40.751Z,100789.03
2023-07-25T14:03:02.692Z,100789.59
2023-07-25T14:08:24.655Z,100792.69
2023-07-25T14:13:46.594Z,100789.88
2023-07-25T14:19:08.832Z,100799.09
2023-07-25T14:24:31.326Z,100798.53
2023-07-25T14:29:53.248Z,100806.31
2023-07-25T14:35:15.174Z,100806.88
2023-07-25T14:40:37.251Z,100806.59
2023-07-25T14:45:59.274Z,100803.81
2023-07-25T14:51:21.216Z,100813.03
2023-07-25T14:56:43.073Z,100814.69
2023-07-25T15:02:05.556Z,100829.13
2023-07-25T15:07:27.601Z,100836.94
2023-07-25T15:12:49.542Z,100836.09
2023-07-25T15:18:12.122Z,100839.16
2023-07-25T15:23:34.217Z,100842.19
2023-07-25T15:28:56.406Z,100845.84
2023-07-25T15:34:18.756Z,100843.06
2023-07-25T15:39:40.744Z,100856.97
2023-07-25T15:45:17.709Z,100856.69
2023-07-25T15:50:40.381Z,100861.44
2023-07-25T15:56:02.348Z,100852.50
2023-07-25T16:01:24.261Z,100856.13
2023-07-25T16:06:46.111Z,100858.66
2023-07-25T16:12:09.295Z,100857.81
2023-07-25T16:17:31.204Z,100860.59
2023-07-25T16:22:53.259Z,100860.59
2023-07-25T16:28:15.110Z,100862.81
2023-07-25T16:33:36.978Z,100855.88
2023-07-25T16:38:59.042Z,100868.69
2023-07-25T16:44:20.968Z,100864.53
2023-07-25T16:49:42.796Z,100873.75
2023-07-25T16:55:05.366Z,100887.13
2023-07-25T17:00:27.271Z,100889.91
2023-07-25T17:05:49.374Z,100886.56
2023-07-25T17:11:12.825Z,100893.25
2023-07-25T17:16:34.786Z,100900.19
2023-07-25T17:21:56.674Z,100899.34
2023-07-25T17:27:19.207Z,100900.44
2023-07-25T17:32:41.232Z,100907.69
2023-07-25T17:38:03.430Z,100916.59
2023-07-25T17:43:25.566Z,100916.03
2023-07-25T17:48:47.646Z,100917.97
2023-07-25T17:54:09.541Z,100925.50
2023-07-25T17:59:31.389Z,100933.28
2023-07-25T18:04:53.352Z,100930.50
2023-07-25T18:10:15.352Z,100932.72
2023-07-25T18:15:37.268Z,100946.06
2023-07-25T18:20:59.126Z,100945.22
2023-07-25T18:26:21.428Z,100952.16
2023-07-25T18:31:43.351Z,100954.38
2023-07-25T18:37:06.244Z,100963.84
2023-07-25T18:42:28.353Z,100976.09
2023-07-25T18:47:50.560Z,100977.19
2023-07-25T18:53:12.818Z,100980.22
2023-07-25T18:58:35.168Z,100979.41
2023-07-25T19:03:57.766Z,100988.84
2023-07-25T19:09:21.578Z,100998.31
2023-07-25T19:14:43.730Z,101015.00
2023-07-25T19:20:06.984Z,101009.44
2023-07-25T19:25:28.848Z,101014.19
2023-07-25T19:30:50.822Z,101012.81
2023-07-25T19:36:12.746Z,101014.22
2023-07-25T19:41:37.717Z,101024.53
2023-07-25T19:46:59.612Z,101028.13
2023-07-25T19:52:21.448Z,101040.13
2023-07-25T19:57:43.314Z,101044.31
2023-07-25T20:03:05.493Z,101047.38
2023-07-25T20:08:27.521Z,101062.41
2023-07-25T20:13:49.348Z,101068.22
2023-07-25T20:19:11.189Z,101067.69
2023-07-25T20:24:33.085Z,101065.13
2023-07-25T20:29:55.081Z,101074.59
2023-07-25T20:35:16.991Z,101077.66
2023-07-25T20:40:39.302Z,101089.06
2023-07-25T20:46:04.671Z,101091.84
2023-07-25T20:51:26.885Z,101084.59
2023-07-25T20:56:48.867Z,101085.94
2023-07-25T21:02:11.132Z,101085.94
2023-07-25T21:07:33.320Z,101085.34
2023-07-25T21:12:55.188Z,101090.09
2023-07-25T21:18:17.107Z,101097.63
2023-07-25T21:23:39.003Z,101093.97
2023-07-25T21:29:00.944Z,101090.63
2023-07-25T21:34:22.793Z,101091.72
2023-07-25T21:39:44.778Z,101095.59
2023-07-25T21:45:08.095Z,101108.41
2023-07-25T21:50:29.961Z,101101.16
2023-07-25T21:55:52.472Z,101105.09
2023-07-25T22:01:14.705Z,101101.44
2023-07-25T22:06:36.720Z,101104.22
2023-07-25T22:11:58.648Z,101110.06
2023-07-25T22:17:21.229Z,101110.06
2023-07-25T22:22:43.157Z,101117.56
2023-07-25T22:28:05.327Z,101112.00
2023-07-25T22:33:27.281Z,101109.47
2023-07-25T22:38:49.142Z,101112.25
2023-07-25T22:44:11.067Z,101109.47
2023-07-25T22:49:33.342Z,101102.19
2023-07-25T22:54:55.232Z,101104.13
2023-07-25T23:00:17.508Z,101108.88
2023-07-25T23:05:39.471Z,101112.47
2023-07-25T23:11:01.501Z,101106.09
2023-07-25T23:16:23.695Z,101117.50
2023-07-25T23:21:45.823Z,101112.75
2023-07-25T23:27:08.020Z,101106.34
2023-07-25T23:32:31.421Z,101106.59
2023-07-25T23:37:53.771Z,101101.03
2023-07-25T23:43:17.214Z,101106.59
2023-07-25T23:48:39.086Z,101113.53
2023-07-25T23:54:01.309Z,101114.34
2023-07-25T23:59:23.301Z,101115.22
